createdAt,value
2022-10-05T00:00:26.122Z,99.99
2022-10-05T00:01:26.174Z,99.99
2022-10-05T00:02:26.144Z,99.99
2022-10-05T00:03:26.095Z,99.99
2022-10-05T00:04:26.086Z,99.99
2022-10-05T00:05:26.069Z,99.99
2022-10-05T00:06:26.025Z,99.99
2022-10-05T00:07:26.028Z,99.99
2022-10-05T00:08:25.992Z,99.99
2022-10-05T00:09:26.047Z,99.99
2022-10-05T00:10:25.973Z,99.99
2022-10-05T00:11:25.992Z,99.99
2022-10-05T00:12:25.987Z,99.99
2022-10-05T00:13:25.931Z,99.99
2022-10-05T00:14:25.922Z,99.99
2022-10-05T00:15:25.908Z,99.99
2022-10-05T00:16:25.945Z,99.99
2022-10-05T00:17:25.937Z,99.99
2022-10-05T00:18:25.923Z,99.99
2022-10-05T00:19:25.877Z,99.99
2022-10-05T00:20:25.885Z,99.99
2022-10-05T00:21:25.838Z,99.99
2022-10-05T00:22:25.785Z,99.99
2022-10-05T00:23:25.832Z,99.86
2022-10-05T00:24:25.792Z,99.55
2022-10-05T00:25:25.825Z,99.55
2022-10-05T00:26:25.762Z,99.45
2022-10-05T00:27:25.746Z,99.35
2022-10-05T00:28:25.755Z,99.15
2022-10-05T00:29:25.770Z,99.35
2022-10-05T00:30:25.696Z,99.25
2022-10-05T00:31:25.785Z,99.35
2022-10-05T00:32:25.677Z,99.25
2022-10-05T00:33:25.675Z,99.35
2022-10-05T00:34:25.617Z,99.40
2022-10-05T00:35:25.602Z,99.40
2022-10-05T00:36:25.640Z,99.50
2022-10-05T00:37:25.598Z,99.70
2022-10-05T00:38:25.672Z,99.80
2022-10-05T00:39:25.658Z,99.91
2022-10-05T00:40:25.553Z,99.91
2022-10-05T00:41:25.594Z,99.99
2022-10-05T00:42:25.580Z,99.99
2022-10-05T00:43:25.515Z,99.99
2022-10-05T00:44:25.517Z,99.99
2022-10-05T00:45:25.615Z,99.99
2022-10-05T00:46:32.196Z,99.99
2022-10-05T00:47:25.462Z,99.99
2022-10-05T00:48:25.447Z,99.99
2022-10-05T00:49:25.463Z,99.99
2022-10-05T00:50:25.389Z,99.99
2022-10-05T00:51:25.392Z,99.99
2022-10-05T00:52:25.365Z,99.99
2022-10-05T00:53:25.376Z,99.99
2022-10-05T00:54:25.418Z,99.99
2022-10-05T00:55:25.318Z,99.99
2022-10-05T00:56:25.305Z,99.99
2022-10-05T00:57:25.305Z,99.96
2022-10-05T00:58:25.313Z,99.76
2022-10-05T00:59:25.282Z,99.66
2022-10-05T01:00:25.269Z,99.55
2022-10-05T01:01:25.354Z,99.41
2022-10-05T01:02:25.270Z,99.30
2022-10-05T01:03:25.210Z,99.20
2022-10-05T01:04:25.283Z,98.90
2022-10-05T01:05:25.211Z,98.69
2022-10-05T01:06:25.157Z,98.28
2022-10-05T01:07:25.216Z,98.18
2022-10-05T01:08:25.136Z,98.18
2022-10-05T01:09:25.119Z,98.08
2022-10-05T01:10:25.126Z,98.08
2022-10-05T01:11:25.178Z,98.03
2022-10-05T01:12:25.078Z,98.08
2022-10-05T01:13:25.084Z,97.83
2022-10-05T01:14:25.044Z,97.73
2022-10-05T01:15:25.044Z,97.73
2022-10-05T01:16:25.086Z,97.63
2022-10-05T01:17:25.055Z,97.53
2022-10-05T01:18:25.039Z,97.53
2022-10-05T01:19:25.021Z,97.53
2022-10-05T01:20:25.027Z,97.53
2022-10-05T01:21:24.952Z,97.32
2022-10-05T01:22:24.967Z,97.42
2022-10-05T01:23:24.918Z,97.42
2022-10-05T01:24:24.931Z,97.32
2022-10-05T01:25:24.896Z,97.32
2022-10-05T01:26:24.848Z,97.22
2022-10-05T01:27:24.897Z,97.32
2022-10-05T01:28:24.988Z,97.32
2022-10-05T01:29:24.865Z,97.53
2022-10-05T01:30:24.891Z,97.53
2022-10-05T01:31:24.890Z,97.53
2022-10-05T01:32:24.798Z,97.63
2022-10-05T01:33:24.887Z,97.63
2022-10-05T01:34:24.751Z,97.73
2022-10-05T01:35:24.722Z,97.88
2022-10-05T01:36:24.727Z,97.98
2022-10-05T01:37:24.837Z,98.03
2022-10-05T01:38:24.683Z,98.03
2022-10-05T01:39:24.782Z,98.03
2022-10-05T01:40:24.681Z,97.93
2022-10-05T01:41:24.656Z,98.03
2022-10-05T01:42:24.670Z,98.03
2022-10-05T01:43:24.618Z,98.08
2022-10-05T01:44:24.659Z,98.03
2022-10-05T01:45:24.652Z,97.93
2022-10-05T01:46:24.645Z,97.93
2022-10-05T01:47:24.572Z,97.83
2022-10-05T01:48:24.609Z,97.83
2022-10-05T01:49:24.637Z,97.73
2022-10-05T01:50:24.518Z,97.88
2022-10-05T01:51:24.502Z,97.88
2022-10-05T01:52:24.550Z,97.78
2022-10-05T01:53:24.474Z,97.88
2022-10-05T01:54:24.466Z,97.88
2022-10-05T01:55:24.508Z,97.67
2022-10-05T01:56:24.534Z,97.78
2022-10-05T01:57:24.426Z,97.88
2022-10-05T01:58:24.428Z,98.08
2022-10-05T01:59:24.429Z,98.18
2022-10-05T02:00:24.431Z,98.28
2022-10-05T02:01:24.559Z,98.28
2022-10-05T02:02:24.467Z,98.39
2022-10-05T02:03:24.365Z,98.39
2022-10-05T02:04:56.497Z,98.28
2022-10-05T02:05:25.432Z,98.28
2022-10-05T02:06:24.307Z,98.28
2022-10-05T02:07:24.301Z,98.08
2022-10-05T02:08:24.284Z,98.18
2022-10-05T02:09:24.283Z,98.18
2022-10-05T02:10:24.353Z,98.08
2022-10-05T02:11:24.201Z,98.18
2022-10-05T02:12:24.226Z,98.18
2022-10-05T02:13:24.200Z,98.28
2022-10-05T02:14:24.252Z,98.28
2022-10-05T02:15:24.148Z,98.28
2022-10-05T02:16:24.180Z,98.18
2022-10-05T02:17:24.298Z,98.18
2022-10-05T02:18:24.105Z,98.08
2022-10-05T02:19:24.092Z,97.98
2022-10-05T02:20:24.094Z,98.08
2022-10-05T02:21:24.124Z,97.93
2022-10-05T02:22:24.076Z,97.98
2022-10-05T02:23:24.067Z,97.93
2022-10-05T02:24:24.050Z,97.93
2022-10-05T02:25:24.041Z,97.83
2022-10-05T02:26:24.050Z,97.83
2022-10-05T02:27:23.955Z,97.93
2022-10-05T02:28:24.981Z,97.73
2022-10-05T02:29:23.949Z,97.63
2022-10-05T02:30:23.988Z,97.63
2022-10-05T02:31:23.963Z,97.63
2022-10-05T02:32:23.985Z,97.53
2022-10-05T02:33:23.936Z,97.53
2022-10-05T02:34:24.202Z,97.32
2022-10-05T02:35:23.869Z,97.32
2022-10-05T02:36:23.861Z,97.42
2022-10-05T02:37:23.859Z,97.42
2022-10-05T02:38:23.863Z,97.42
2022-10-05T02:39:23.887Z,97.42
2022-10-05T02:40:23.897Z,97.32
2022-10-05T02:41:23.900Z,97.32
2022-10-05T02:42:23.735Z,97.42
2022-10-05T02:43:23.806Z,97.32
2022-10-05T02:44:23.796Z,97.53
2022-10-05T02:45:23.742Z,97.42
2022-10-05T02:46:23.801Z,97.53
2022-10-05T02:47:23.766Z,97.63
2022-10-05T02:48:23.728Z,97.63
2022-10-05T02:49:23.705Z,97.88
2022-10-05T02:50:23.693Z,97.98
2022-10-05T02:51:23.674Z,97.93
2022-10-05T02:52:23.614Z,97.93
2022-10-05T02:53:23.630Z,98.03
2022-10-05T02:54:23.624Z,98.08
2022-10-05T02:55:23.564Z,97.93
2022-10-05T02:56:23.554Z,97.93
2022-10-05T02:57:23.570Z,97.93
2022-10-05T02:58:23.549Z,97.93
2022-10-05T02:59:23.523Z,97.83
2022-10-05T03:00:23.520Z,97.83
2022-10-05T03:01:23.608Z,97.93
2022-10-05T03:02:23.517Z,97.93
2022-10-05T03:03:23.436Z,98.03
2022-10-05T03:04:23.483Z,97.98
2022-10-05T03:05:23.430Z,98.14
2022-10-05T03:06:23.443Z,98.18
2022-10-05T03:07:23.366Z,98.28
2022-10-05T03:08:23.390Z,98.28
2022-10-05T03:09:23.475Z,98.28
2022-10-05T03:10:23.381Z,98.39
2022-10-05T03:11:23.424Z,98.39
2022-10-05T03:12:23.345Z,98.28
2022-10-05T03:13:23.321Z,98.14
2022-10-05T03:14:23.318Z,97.93
2022-10-05T03:15:23.262Z,97.93
2022-10-05T03:16:23.444Z,98.03
2022-10-05T03:17:23.312Z,97.93
2022-10-05T03:18:26.302Z,98.14
2022-10-05T03:19:24.242Z,97.83
2022-10-05T03:20:23.202Z,97.83
2022-10-05T03:21:23.163Z,97.73
2022-10-05T03:22:23.230Z,97.63
2022-10-05T03:23:23.173Z,97.63
2022-10-05T03:24:23.159Z,97.63
2022-10-05T03:25:23.225Z,97.63
2022-10-05T03:26:23.092Z,97.42
2022-10-05T03:27:23.129Z,97.63
2022-10-05T03:28:23.130Z,97.53
2022-10-05T03:29:23.070Z,97.42
2022-10-05T03:30:23.044Z,97.32
2022-10-05T03:31:23.087Z,97.32
2022-10-05T03:32:23.015Z,97.12
2022-10-05T03:33:22.994Z,97.22
2022-10-05T03:34:22.984Z,97.22
2022-10-05T03:35:22.978Z,97.22
2022-10-05T03:36:23.084Z,97.22
2022-10-05T03:37:22.917Z,97.12
2022-10-05T03:38:22.926Z,97.02
2022-10-05T03:39:22.975Z,97.12
2022-10-05T03:40:22.934Z,97.12
2022-10-05T03:41:22.912Z,97.02
2022-10-05T03:42:22.869Z,96.92
2022-10-05T03:43:22.899Z,97.02
2022-10-05T03:44:22.931Z,97.02
2022-10-05T03:45:22.819Z,97.22
2022-10-05T03:46:22.898Z,97.22
2022-10-05T03:47:22.828Z,97.22
2022-10-05T03:48:22.800Z,97.22
2022-10-05T03:49:22.792Z,97.22
2022-10-05T03:50:22.811Z,97.12
2022-10-05T03:51:22.710Z,96.81
2022-10-05T03:52:22.806Z,96.71
2022-10-05T03:53:22.871Z,96.71
2022-10-05T03:54:22.699Z,96.81
2022-10-05T03:55:22.696Z,96.81
2022-10-05T03:56:22.660Z,96.51
2022-10-05T03:57:22.762Z,96.71
2022-10-05T03:58:22.649Z,96.61
2022-10-05T03:59:22.648Z,96.61
2022-10-05T04:00:22.598Z,96.51
2022-10-05T04:01:22.651Z,96.61
2022-10-05T04:02:22.620Z,96.46
2022-10-05T04:03:22.556Z,96.51
2022-10-05T04:04:22.535Z,96.36
2022-10-05T04:05:22.530Z,96.46
2022-10-05T04:06:31.202Z,96.36
2022-10-05T04:07:22.491Z,96.06
2022-10-05T04:08:22.454Z,96.15
2022-10-05T04:09:22.443Z,96.36
2022-10-05T04:10:22.444Z,96.46
2022-10-05T04:11:22.435Z,96.36
2022-10-05T04:12:22.405Z,96.46
2022-10-05T04:13:22.375Z,96.36
2022-10-05T04:14:22.373Z,96.46
2022-10-05T04:15:22.356Z,96.56
2022-10-05T04:16:22.431Z,96.36
2022-10-05T04:17:22.324Z,96.26
2022-10-05T04:18:22.323Z,96.36
2022-10-05T04:19:22.295Z,96.46
2022-10-05T04:20:22.292Z,96.36
2022-10-05T04:21:23.967Z,96.46
2022-10-05T04:22:22.255Z,96.46
2022-10-05T04:23:22.246Z,96.36
2022-10-05T04:24:22.224Z,96.51
2022-10-05T04:25:22.204Z,96.46
2022-10-05T04:26:22.198Z,96.46
2022-10-05T04:27:22.209Z,96.46
2022-10-05T04:28:22.201Z,96.56
2022-10-05T04:29:22.143Z,96.26
2022-10-05T04:30:22.147Z,96.46
2022-10-05T04:31:22.134Z,96.46
2022-10-05T04:32:22.108Z,96.26
2022-10-05T04:33:22.106Z,96.26
2022-10-05T04:34:22.080Z,96.15
2022-10-05T04:35:22.068Z,96.26
2022-10-05T04:36:22.051Z,96.36
2022-10-05T04:37:22.031Z,96.36
2022-10-05T04:38:22.070Z,96.46
2022-10-05T04:39:22.012Z,96.56
2022-10-05T04:40:22.009Z,96.15
2022-10-05T04:41:21.983Z,96.15
2022-10-05T04:42:21.954Z,96.06
2022-10-05T04:43:21.968Z,95.85
2022-10-05T04:44:21.941Z,95.85
2022-10-05T04:45:21.918Z,95.85
2022-10-05T04:46:21.961Z,95.95
2022-10-05T04:47:21.881Z,95.95
2022-10-05T04:48:21.873Z,95.95
2022-10-05T04:49:21.876Z,96.15
2022-10-05T04:50:21.854Z,96.06
2022-10-05T04:51:21.837Z,96.15
2022-10-05T04:52:21.818Z,96.26
2022-10-05T04:53:21.805Z,96.26
2022-10-05T04:54:21.790Z,96.36
2022-10-05T04:55:21.790Z,96.26
2022-10-05T04:56:21.794Z,96.26
2022-10-05T04:57:21.737Z,96.15
2022-10-05T04:58:21.733Z,95.95
2022-10-05T04:59:21.716Z,96.06
2022-10-05T05:00:21.694Z,95.91
2022-10-05T05:01:21.758Z,95.95
2022-10-05T05:02:21.696Z,95.91
2022-10-05T05:03:21.706Z,95.91
2022-10-05T05:04:21.677Z,95.81
2022-10-05T05:05:21.655Z,95.61
2022-10-05T05:06:21.609Z,95.81
2022-10-05T05:07:21.598Z,95.81
2022-10-05T05:08:21.578Z,95.40
2022-10-05T05:09:21.570Z,95.30
2022-10-05T05:10:21.569Z,95.50
2022-10-05T05:11:24.603Z,95.40
2022-10-05T05:12:21.527Z,95.40
2022-10-05T05:13:21.514Z,95.40
2022-10-05T05:14:21.512Z,95.40
2022-10-05T05:15:21.492Z,95.40
2022-10-05T05:16:21.526Z,95.40
2022-10-05T05:17:21.474Z,95.40
2022-10-05T05:18:21.445Z,95.40
2022-10-05T05:19:21.433Z,95.09
2022-10-05T05:20:21.429Z,95.20
2022-10-05T05:21:21.393Z,95.20
2022-10-05T05:22:21.533Z,95.09
2022-10-05T05:23:21.371Z,95.09
2022-10-05T05:24:21.363Z,94.89
2022-10-05T05:25:21.343Z,95.09
2022-10-05T05:26:21.334Z,95.30
2022-10-05T05:27:21.334Z,95.30
2022-10-05T05:28:21.335Z,95.30
2022-10-05T05:29:21.285Z,95.30
2022-10-05T05:30:21.306Z,95.09
2022-10-05T05:31:21.330Z,95.09
2022-10-05T05:32:21.251Z,94.79
2022-10-05T05:33:21.268Z,94.89
2022-10-05T05:34:21.263Z,94.79
2022-10-05T05:35:21.220Z,94.69
2022-10-05T05:36:23.339Z,94.89
2022-10-05T05:37:21.200Z,94.89
2022-10-05T05:38:21.259Z,94.89
2022-10-05T05:39:21.192Z,95.20
2022-10-05T05:40:21.167Z,95.09
2022-10-05T05:41:21.128Z,95.00
2022-10-05T05:42:21.178Z,94.79
2022-10-05T05:43:21.091Z,94.79
2022-10-05T05:44:21.112Z,94.59
2022-10-05T05:45:21.069Z,94.18
2022-10-05T05:46:26.965Z,94.69
2022-10-05T05:47:22.126Z,94.28
2022-10-05T05:48:21.040Z,94.18
2022-10-05T05:49:21.029Z,94.04
2022-10-05T05:50:21.035Z,94.34
2022-10-05T05:51:20.986Z,94.74
2022-10-05T05:52:20.967Z,94.59
2022-10-05T05:53:20.935Z,94.48
2022-10-05T05:54:20.930Z,94.59
2022-10-05T05:55:20.934Z,94.28
2022-10-05T05:56:20.923Z,94.34
2022-10-05T05:57:20.913Z,94.59
2022-10-05T05:58:20.881Z,94.54
2022-10-05T05:59:20.868Z,94.44
2022-10-05T06:00:20.874Z,94.44
2022-10-05T06:01:32.720Z,94.79
2022-10-05T06:02:21.931Z,94.54
2022-10-05T06:03:20.978Z,94.34
2022-10-05T06:04:20.797Z,94.34
2022-10-05T06:05:20.790Z,94.34
2022-10-05T06:06:20.806Z,94.34
2022-10-05T06:07:20.756Z,94.04
2022-10-05T06:08:20.747Z,94.34
2022-10-05T06:09:20.717Z,94.13
2022-10-05T06:10:20.721Z,94.04
2022-10-05T06:11:20.709Z,94.13
2022-10-05T06:12:20.721Z,93.93
2022-10-05T06:13:20.658Z,93.83
2022-10-05T06:14:20.765Z,93.63
2022-10-05T06:15:20.624Z,93.59
2022-10-05T06:16:20.706Z,93.28
2022-10-05T06:17:20.614Z,93.07
2022-10-05T06:18:20.619Z,93.18
2022-10-05T06:19:20.579Z,93.38
2022-10-05T06:20:20.570Z,93.38
2022-10-05T06:21:20.562Z,92.72
2022-10-05T06:22:20.565Z,92.72
2022-10-05T06:23:20.543Z,92.63
2022-10-05T06:24:20.553Z,93.24
2022-10-05T06:25:20.493Z,92.83
2022-10-05T06:26:20.518Z,92.72
2022-10-05T06:27:20.483Z,92.63
2022-10-05T06:28:20.523Z,93.54
2022-10-05T06:29:20.458Z,93.03
2022-10-05T06:30:20.445Z,92.12
2022-10-05T06:31:20.457Z,92.22
2022-10-05T06:32:20.404Z,91.87
2022-10-05T06:33:20.393Z,92.38
2022-10-05T06:34:20.382Z,91.87
2022-10-05T06:35:20.367Z,92.38
2022-10-05T06:36:20.475Z,92.18
2022-10-05T06:37:20.385Z,92.38
2022-10-05T06:38:20.334Z,92.28
2022-10-05T06:39:20.324Z,91.67
2022-10-05T06:40:20.287Z,91.47
2022-10-05T06:41:20.281Z,91.56
2022-10-05T06:42:20.269Z,91.67
2022-10-05T06:43:20.268Z,91.16
2022-10-05T06:44:20.244Z,91.47
2022-10-05T06:45:20.244Z,90.96
2022-10-05T06:46:20.269Z,90.96
2022-10-05T06:47:20.218Z,91.36
2022-10-05T06:48:20.198Z,91.36
2022-10-05T06:49:20.192Z,90.75
2022-10-05T06:50:20.158Z,91.26
2022-10-05T06:51:20.148Z,91.06
2022-10-05T06:52:20.162Z,90.96
2022-10-05T06:53:20.147Z,90.86
2022-10-05T06:54:20.099Z,90.96
2022-10-05T06:55:20.118Z,91.36
2022-10-05T06:56:20.077Z,91.06
2022-10-05T06:57:20.071Z,91.16
2022-10-05T06:58:20.073Z,90.96
2022-10-05T06:59:20.072Z,91.56
2022-10-05T07:00:20.043Z,91.16
2022-10-05T07:01:20.094Z,91.16
2022-10-05T07:02:20.036Z,91.26
2022-10-05T07:03:19.991Z,91.36
2022-10-05T07:04:19.970Z,91.41
2022-10-05T07:05:19.986Z,91.16
2022-10-05T07:06:19.955Z,91.06
2022-10-05T07:07:19.932Z,91.36
2022-10-05T07:08:19.928Z,91.56
2022-10-05T07:09:19.898Z,91.67
2022-10-05T07:10:19.899Z,91.77
2022-10-05T07:11:19.904Z,91.36
2022-10-05T07:12:19.889Z,91.77
2022-10-05T07:13:19.840Z,91.30
2022-10-05T07:14:19.823Z,91.51
2022-10-05T07:15:19.830Z,91.51
2022-10-05T07:16:19.826Z,91.61
2022-10-05T07:17:19.826Z,91.41
2022-10-05T07:18:19.775Z,91.47
2022-10-05T07:19:19.782Z,91.51
2022-10-05T07:20:19.747Z,91.00
2022-10-05T07:21:19.740Z,91.16
2022-10-05T07:22:20.397Z,91.51
2022-10-05T07:23:19.717Z,91.20
2022-10-05T07:24:19.706Z,91.47
2022-10-05T07:25:19.698Z,91.87
2022-10-05T07:26:19.681Z,91.36
2022-10-05T07:27:19.675Z,91.51
2022-10-05T07:28:19.700Z,91.61
2022-10-05T07:29:19.631Z,91.71
2022-10-05T07:30:19.609Z,91.87
2022-10-05T07:31:19.651Z,91.67
2022-10-05T07:32:19.624Z,91.36
2022-10-05T07:33:19.603Z,91.51
2022-10-05T07:34:19.602Z,91.51
2022-10-05T07:35:19.555Z,91.26
2022-10-05T07:36:19.548Z,91.47
2022-10-05T07:37:19.517Z,91.06
2022-10-05T07:38:19.555Z,91.06
2022-10-05T07:39:20.214Z,90.75
2022-10-05T07:40:19.472Z,90.86
2022-10-05T07:41:19.476Z,91.06
2022-10-05T07:42:19.453Z,90.96
2022-10-05T07:43:19.456Z,90.96
2022-10-05T07:44:19.430Z,90.66
2022-10-05T07:45:19.404Z,91.06
2022-10-05T07:46:19.455Z,90.66
2022-10-05T07:47:19.391Z,90.66
2022-10-05T07:48:19.372Z,91.06
2022-10-05T07:49:19.357Z,90.75
2022-10-05T07:50:19.337Z,90.41
2022-10-05T07:51:19.360Z,90.71
2022-10-05T07:52:19.311Z,90.71
2022-10-05T07:53:19.359Z,90.71
2022-10-05T07:54:19.287Z,90.51
2022-10-05T07:55:19.277Z,90.31
2022-10-05T07:56:19.283Z,90.71
2022-10-05T07:57:19.265Z,90.41
2022-10-05T07:58:19.219Z,90.71
2022-10-05T07:59:19.262Z,90.20
2022-10-05T08:00:19.194Z,90.31
2022-10-05T08:01:19.222Z,90.31
2022-10-05T08:02:19.243Z,89.70
2022-10-05T08:03:19.260Z,89.59
2022-10-05T08:04:19.175Z,89.70
2022-10-05T08:05:19.143Z,89.90
2022-10-05T08:06:19.146Z,89.65
2022-10-05T08:07:19.150Z,89.86
2022-10-05T08:08:20.445Z,89.45
2022-10-05T08:09:19.133Z,89.55
2022-10-05T08:10:19.076Z,89.65
2022-10-05T08:11:19.086Z,89.55
2022-10-05T08:12:19.035Z,89.96
2022-10-05T08:13:19.082Z,89.45
2022-10-05T08:14:19.005Z,89.65
2022-10-05T08:15:19.023Z,89.65
2022-10-05T08:16:19.058Z,89.65
2022-10-05T08:17:21.692Z,89.35
2022-10-05T08:18:19.981Z,89.11
2022-10-05T08:19:18.957Z,89.72
2022-10-05T08:20:18.934Z,89.21
2022-10-05T08:21:18.931Z,89.92
2022-10-05T08:22:18.916Z,89.11
2022-10-05T08:23:18.891Z,89.21
2022-10-05T08:24:18.898Z,88.90
2022-10-05T08:25:18.878Z,88.80
2022-10-05T08:26:18.845Z,89.01
2022-10-05T08:27:18.863Z,88.70
2022-10-05T08:28:18.854Z,88.60
2022-10-05T08:29:18.812Z,88.40
2022-10-05T08:30:18.812Z,88.90
2022-10-05T08:31:18.964Z,89.37
2022-10-05T08:32:18.770Z,88.25
2022-10-05T08:33:18.757Z,89.17
2022-10-05T08:34:18.742Z,88.66
2022-10-05T08:35:18.742Z,88.35
2022-10-05T08:36:18.721Z,88.35
2022-10-05T08:37:18.707Z,87.54
2022-10-05T08:38:18.728Z,87.45
2022-10-05T08:39:18.665Z,88.05
2022-10-05T08:40:18.691Z,87.74
2022-10-05T08:41:18.645Z,87.65
2022-10-05T08:42:18.623Z,87.91
2022-10-05T08:43:18.646Z,87.40
2022-10-05T08:44:18.604Z,87.40
2022-10-05T08:45:18.581Z,87.40
2022-10-05T08:46:18.615Z,87.60
2022-10-05T08:47:18.581Z,86.90
2022-10-05T08:48:18.546Z,87.10
2022-10-05T08:49:18.559Z,86.79
2022-10-05T08:50:18.568Z,87.10
2022-10-05T08:51:18.506Z,87.20
2022-10-05T08:52:18.489Z,87.26
2022-10-05T08:53:18.478Z,86.76
2022-10-05T08:54:18.468Z,86.85
2022-10-05T08:55:18.468Z,86.59
2022-10-05T08:56:20.870Z,86.55
2022-10-05T08:57:18.435Z,86.55
2022-10-05T08:58:18.408Z,86.65
2022-10-05T08:59:18.390Z,86.96
2022-10-05T09:00:18.403Z,86.55
2022-10-05T09:01:18.454Z,86.15
2022-10-05T09:02:18.397Z,86.55
2022-10-05T09:03:18.349Z,85.94
2022-10-05T09:04:18.321Z,86.05
2022-10-05T09:05:18.326Z,85.84
2022-10-05T09:06:18.346Z,86.10
2022-10-05T09:07:18.281Z,86.21
2022-10-05T09:08:18.291Z,85.60
2022-10-05T09:09:18.283Z,85.50
2022-10-05T09:10:18.233Z,85.90
2022-10-05T09:11:18.244Z,85.80
2022-10-05T09:12:18.242Z,85.60
2022-10-05T09:13:18.198Z,85.19
2022-10-05T09:14:18.184Z,85.30
2022-10-05T09:15:25.973Z,85.50
2022-10-05T09:16:19.220Z,85.96
2022-10-05T09:17:18.167Z,85.16
2022-10-05T09:18:18.189Z,84.65
2022-10-05T09:19:18.116Z,85.05
2022-10-05T09:20:18.153Z,84.85
2022-10-05T09:21:18.096Z,85.25
2022-10-05T09:22:18.084Z,84.14
2022-10-05T09:23:18.104Z,85.05
2022-10-05T09:24:18.053Z,84.85
2022-10-05T09:25:18.057Z,84.95
2022-10-05T09:26:18.011Z,84.14
2022-10-05T09:27:18.017Z,84.65
2022-10-05T09:28:18.077Z,84.55
2022-10-05T09:29:17.995Z,83.94
2022-10-05T09:30:18.068Z,84.34
2022-10-05T09:31:18.032Z,85.46
2022-10-05T09:32:17.942Z,84.34
2022-10-05T09:33:17.940Z,85.11
2022-10-05T09:34:17.930Z,84.41
2022-10-05T09:35:17.900Z,84.51
2022-10-05T09:36:17.891Z,84.61
2022-10-05T09:37:17.883Z,84.61
2022-10-05T09:38:17.877Z,84.20
2022-10-05T09:39:17.880Z,84.00
2022-10-05T09:41:29.010Z,83.96
2022-10-05T09:42:28.998Z,83.46
2022-10-05T09:43:28.982Z,83.76
2022-10-05T09:44:29.011Z,83.86
2022-10-05T09:45:28.952Z,83.05
2022-10-05T09:46:29.030Z,83.15
2022-10-05T09:47:28.933Z,83.76
2022-10-05T09:48:28.919Z,83.15
2022-10-05T09:49:28.942Z,82.95
2022-10-05T09:50:28.884Z,82.75
2022-10-05T09:51:28.933Z,82.75
2022-10-05T09:52:28.868Z,82.65
2022-10-05T09:53:28.844Z,83.12
2022-10-05T09:54:28.840Z,82.81
2022-10-05T09:55:28.835Z,82.91
2022-10-05T09:57:28.805Z,82.91
2022-10-05T09:58:28.792Z,83.68
2022-10-05T09:59:28.767Z,82.67
2022-10-05T10:00:28.807Z,82.37
2022-10-05T10:01:33.757Z,81.96
2022-10-05T10:02:29.843Z,82.67
2022-10-05T10:03:28.799Z,81.96
2022-10-05T10:04:28.700Z,81.76
2022-10-05T10:05:28.688Z,82.37
2022-10-05T10:06:28.682Z,81.87
2022-10-05T10:07:28.679Z,82.07
2022-10-05T10:08:36.285Z,81.67
2022-10-05T10:09:28.637Z,82.47
2022-10-05T10:10:28.637Z,82.47
2022-10-05T10:11:28.606Z,81.73
2022-10-05T10:12:28.599Z,81.62
2022-10-05T10:13:28.624Z,81.73
2022-10-05T10:14:28.577Z,81.62
2022-10-05T10:15:28.563Z,81.42
2022-10-05T10:16:28.562Z,81.42
2022-10-05T10:17:28.533Z,81.02
2022-10-05T10:18:28.591Z,80.82
2022-10-05T10:19:28.515Z,81.42
2022-10-05T10:20:28.528Z,81.46
2022-10-05T10:21:28.501Z,81.62
2022-10-05T10:22:28.513Z,81.73
2022-10-05T10:23:28.613Z,81.73
2022-10-05T10:24:28.501Z,82.03
2022-10-05T10:25:28.416Z,80.92
2022-10-05T10:26:28.423Z,81.48
2022-10-05T10:27:28.458Z,81.48
2022-10-05T10:28:28.478Z,81.08
2022-10-05T10:29:28.459Z,80.88
2022-10-05T10:30:28.459Z,80.88
2022-10-05T10:31:28.445Z,80.78
2022-10-05T10:32:29.031Z,81.24
2022-10-05T10:33:28.355Z,81.08
2022-10-05T10:34:28.320Z,80.47
2022-10-05T10:35:31.345Z,80.18
2022-10-05T10:36:28.305Z,80.78
2022-10-05T10:37:28.283Z,81.48
2022-10-05T10:38:28.305Z,80.54
2022-10-05T10:39:28.251Z,80.07
2022-10-05T10:40:28.226Z,80.94
2022-10-05T10:41:28.336Z,80.27
2022-10-05T10:42:28.327Z,80.68
2022-10-05T10:43:28.193Z,81.45
2022-10-05T10:44:28.195Z,80.54
2022-10-05T10:45:28.183Z,80.74
2022-10-05T10:46:28.198Z,80.47
2022-10-05T10:47:28.142Z,80.78
2022-10-05T10:48:28.140Z,80.33
2022-10-05T10:49:28.091Z,81.15
2022-10-05T10:50:28.098Z,82.05
2022-10-05T10:51:28.130Z,80.74
2022-10-05T10:52:28.124Z,80.33
2022-10-05T10:53:28.057Z,80.50
2022-10-05T10:54:28.068Z,80.30
2022-10-05T10:55:28.033Z,80.40
2022-10-05T10:56:28.065Z,79.80
2022-10-05T10:57:28.043Z,79.93
2022-10-05T10:58:28.034Z,79.49
2022-10-05T10:59:30.776Z,79.43
2022-10-05T11:00:28.001Z,79.80
2022-10-05T11:01:28.062Z,79.80
2022-10-05T11:02:27.989Z,80.00
2022-10-05T11:03:27.914Z,79.36
2022-10-05T11:04:27.947Z,78.65
2022-10-05T11:05:27.885Z,78.65
2022-10-05T11:06:27.887Z,78.85
2022-10-05T11:07:27.879Z,78.05
2022-10-05T11:08:27.867Z,78.61
2022-10-05T11:09:27.916Z,78.01
2022-10-05T11:10:27.874Z,77.70
2022-10-05T11:11:27.829Z,78.47
2022-10-05T11:12:32.084Z,78.27
2022-10-05T11:13:28.788Z,77.67
2022-10-05T11:14:27.770Z,76.46
2022-10-05T11:15:28.439Z,77.27
2022-10-05T11:16:27.738Z,76.46
2022-10-05T11:17:27.740Z,76.36
2022-10-05T11:18:27.751Z,76.97
2022-10-05T11:19:35.238Z,76.26
2022-10-05T11:20:28.804Z,76.36
2022-10-05T11:21:27.700Z,76.56
2022-10-05T11:22:27.675Z,76.26
2022-10-05T11:23:27.746Z,76.26
2022-10-05T11:24:27.661Z,75.96
2022-10-05T11:25:27.648Z,76.67
2022-10-05T11:26:27.642Z,77.07
2022-10-05T11:27:27.631Z,77.23
2022-10-05T11:28:27.709Z,77.53
2022-10-05T11:29:27.613Z,75.86
2022-10-05T11:30:27.608Z,75.96
2022-10-05T11:31:27.632Z,76.73
2022-10-05T11:32:27.544Z,77.23
2022-10-05T11:33:27.530Z,77.13
2022-10-05T11:34:27.513Z,76.23
2022-10-05T11:35:27.526Z,76.73
2022-10-05T11:36:27.533Z,76.49
2022-10-05T11:37:27.496Z,76.09
2022-10-05T11:38:27.513Z,75.68
2022-10-05T11:39:27.498Z,75.79
2022-10-05T11:40:27.466Z,75.59
2022-10-05T11:41:27.435Z,75.99
2022-10-05T11:42:27.431Z,76.19
2022-10-05T11:43:27.414Z,75.29
2022-10-05T11:44:27.380Z,75.79
2022-10-05T11:45:27.372Z,75.68
2022-10-05T11:46:27.409Z,74.78
2022-10-05T11:47:27.351Z,74.68
2022-10-05T11:48:27.394Z,75.09
2022-10-05T11:49:27.307Z,76.39
2022-10-05T11:50:27.374Z,75.38
2022-10-05T11:51:28.912Z,75.29
2022-10-05T11:52:27.293Z,74.68
2022-10-05T11:53:27.262Z,74.88
2022-10-05T11:54:27.272Z,75.99
2022-10-05T11:55:27.227Z,75.99
2022-10-05T11:56:27.303Z,76.19
2022-10-05T11:57:27.213Z,76.29
2022-10-05T11:58:27.183Z,74.78
2022-10-05T11:59:27.177Z,73.98
2022-10-05T12:00:27.184Z,74.58
2022-10-05T12:01:27.141Z,73.47
2022-10-05T12:02:27.143Z,74.68
2022-10-05T12:03:27.211Z,74.95
2022-10-05T12:04:27.105Z,74.35
2022-10-05T12:05:27.084Z,74.15
2022-10-05T12:06:27.122Z,74.15
2022-10-05T12:07:27.059Z,73.21
2022-10-05T12:08:27.088Z,73.30
2022-10-05T12:09:27.022Z,73.30
2022-10-05T12:10:27.040Z,74.71
2022-10-05T12:11:27.167Z,73.71
2022-10-05T12:12:26.991Z,73.61
2022-10-05T12:13:26.970Z,72.80
2022-10-05T12:14:26.985Z,72.80
2022-10-05T12:15:26.946Z,73.10
2022-10-05T12:16:27.049Z,72.60
2022-10-05T12:17:27.014Z,72.30
2022-10-05T12:18:27.054Z,71.90
2022-10-05T12:19:26.957Z,72.20
2022-10-05T12:20:26.912Z,73.21
2022-10-05T12:21:26.868Z,72.71
2022-10-05T12:22:26.879Z,72.71
2022-10-05T12:23:26.853Z,72.87
2022-10-05T12:24:27.148Z,72.77
2022-10-05T12:25:26.832Z,73.00
2022-10-05T12:26:26.806Z,73.17
2022-10-05T12:27:26.834Z,73.47
2022-10-05T12:28:26.831Z,73.87
2022-10-05T12:29:26.844Z,72.77
2022-10-05T12:30:26.778Z,73.37
2022-10-05T12:31:26.766Z,72.80
2022-10-05T12:32:26.745Z,73.57
2022-10-05T12:33:26.727Z,72.67
2022-10-05T12:34:26.711Z,73.17
2022-10-05T12:35:43.877Z,73.57
2022-10-05T12:36:35.914Z,74.18
2022-10-05T12:37:27.652Z,72.67
2022-10-05T12:38:26.690Z,73.37
2022-10-05T12:39:26.651Z,73.27
2022-10-05T12:40:26.637Z,72.90
2022-10-05T12:41:26.608Z,73.21
2022-10-05T12:42:26.695Z,73.50
2022-10-05T12:43:26.663Z,73.61
2022-10-05T12:44:26.623Z,73.41
2022-10-05T12:45:26.596Z,72.87
2022-10-05T12:46:26.554Z,72.77
2022-10-05T12:47:26.554Z,73.67
2022-10-05T12:48:26.524Z,74.18
2022-10-05T12:49:26.566Z,73.07
2022-10-05T12:50:26.537Z,73.07
2022-10-05T12:51:26.515Z,72.56
2022-10-05T12:52:26.483Z,72.37
2022-10-05T12:53:26.488Z,72.67
2022-10-05T12:54:26.443Z,72.43